Time;durP1;ratioP1;P1;durP2;ratioP2;P2;SDS_P1;SDS_P2;PMS_P1;PMS_P2;Temp;Humidity;BMP_temperature;BMP_pressure;BME280_temperature;BME280_humidity;BME280_pressure;Samples;Min_cycle;Max_cycle;Signal;HPM_P1;HPM_P2
2022/12/25 00:01:21;;;;;;;437.50;62.63;;;4.40;99.90;;;2.83;100.00;101130.28;5019430;28;20029;-79
2022/12/25 00:03:47;;;;;;;538.97;62.15;;;4.40;99.90;;;2.90;100.00;101127.66;4999253;28;20044;-79
2022/12/25 00:06:13;;;;;;;798.65;122.35;;;4.40;99.90;;;2.83;100.00;101119.88;5002623;28;20525;-79
2022/12/25 00:08:40;;;;;;;593.70;101.35;;;4.40;99.90;;;2.88;100.00;101125.91;5001033;28;20038;-79
2022/12/25 00:11:13;;;;;;;907.00;152.75;;;4.40;99.90;;;2.79;100.00;101120.78;4997344;28;20390;-78
2022/12/25 00:13:41;;;;;;;864.28;153.70;;;4.40;99.90;;;2.82;100.00;101127.69;4986852;28;20041;-77
2022/12/25 00:16:17;;;;;;;630.85;83.03;;;4.40;99.90;;;2.92;100.00;101125.91;4983500;28;20107;-77
2022/12/25 00:18:44;;;;;;;651.80;81.00;;;4.50;99.90;;;2.92;100.00;101124.16;5000368;28;20529;-78
2022/12/25 00:21:11;;;;;;;610.88;77.53;;;4.50;99.90;;;2.98;100.00;101125.81;4998786;28;20045;-78
2022/12/25 00:23:37;;;;;;;609.30;67.18;;;4.50;99.90;;;2.98;100.00;101137.09;5003949;28;20037;-78
2022/12/25 00:26:07;;;;;;;551.00;63.85;;;4.50;99.90;;;2.99;100.00;101133.63;5005367;28;20039;-79
2022/12/25 00:28:34;;;;;;;512.85;62.15;;;4.60;99.90;;;3.01;100.00;101139.66;5007052;28;20026;-79
2022/12/25 00:31:13;;;;;;;536.20;63.17;;;4.60;99.90;;;3.08;100.00;101150.88;5003935;28;20123;-79
2022/12/25 00:33:42;;;;;;;520.28;61.28;;;4.60;99.90;;;3.05;100.00;101146.56;5003918;28;20034;-78
2022/12/25 00:36:10;;;;;;;506.75;62.78;;;4.60;99.90;;;3.10;100.00;101156.09;5001114;28;20033;-78
2022/12/25 00:38:43;;;;;;;520.33;62.20;;;4.60;99.90;;;3.10;100.00;101149.13;5005654;28;20079;-79
2022/12/25 00:42:17;;;;;;;503.70;61.70;;;4.60;99.90;;;3.08;100.00;101145.69;5001184;28;20075;-78
2022/12/25 00:44:05;;;;;;;501.42;60.53;;;4.70;99.90;;;3.11;100.00;101156.06;5005432;28;20403;-79
2022/12/25 00:46:31;;;;;;;420.25;56.63;;;4.70;99.90;;;3.15;100.00;101162.09;5006113;28;20039;-79
2022/12/25 00:49:01;;;;;;;523.75;61.58;;;4.70;99.90;;;3.23;100.00;101160.28;5004427;28;20519;-80
2022/12/25 00:51:30;;;;;;;578.17;61.13;;;4.70;99.90;;;3.17;100.00;101150.78;5019167;28;20120;-79
2022/12/25 00:53:55;;;;;;;396.17;57.17;;;4.70;99.90;;;3.21;100.00;101160.31;5002017;28;20033;-80
2022/12/25 00:56:21;;;;;;;520.00;61.58;;;4.80;99.90;;;3.18;100.00;101149.94;4990239;28;20022;-79
2022/12/25 00:58:47;;;;;;;484.42;62.28;;;4.80;99.90;;;3.22;100.00;101155.97;5020452;28;20029;-78
2022/12/25 01:01:13;;;;;;;600.35;65.32;;;4.80;99.90;;;3.21;100.00;101162.03;5005327;28;20100;-79
2022/12/25 01:03:44;;;;;;;607.92;67.22;;;4.80;99.90;;;3.16;100.00;101161.25;4994958;28;20092;-79
2022/12/25 01:06:11;;;;;;;494.92;60.03;;;4.80;99.90;;;3.25;100.00;101174.16;5018256;28;20034;-79
2022/12/25 01:10:21;;;;;;;587.10;64.10;;;4.80;99.90;;;3.23;100.00;101166.34;4994775;28;20026;-79
2022/12/25 01:11:29;;;;;;;455.70;60.67;;;4.80;99.90;;;3.26;100.00;101181.06;5004548;28;20030;-79
2022/12/25 01:13:56;;;;;;;437.35;58.50;;;4.80;99.90;;;3.33;100.00;101181.91;4987420;28;20097;-79
2022/12/25 01:16:21;;;;;;;404.75;56.60;;;4.90;99.90;;;3.36;100.00;101189.66;5024540;28;20085;-80
2022/12/25 01:18:47;;;;;;;410.55;57.30;;;4.90;99.90;;;3.38;100.00;101191.38;5006372;28;20038;-79
2022/12/25 01:21:23;;;;;;;431.63;58.63;;;4.90;99.90;;;3.38;100.00;101201.78;5004106;28;20034;-79
2022/12/25 01:23:51;;;;;;;416.55;57.20;;;4.90;99.90;;;3.41;100.00;101196.56;5006399;28;20129;-80
2022/12/25 01:26:22;;;;;;;406.38;56.33;;;4.90;99.90;;;3.39;100.00;101205.25;5005298;28;20031;-80
2022/12/25 01:28:49;;;;;;;344.02;53.88;;;5.00;99.90;;;3.46;100.00;101204.34;5007611;28;20045;-80
2022/12/25 01:31:19;;;;;;;407.30;57.92;;;5.00;99.90;;;3.51;100.00;101217.31;5006471;28;20038;-80
2022/12/25 01:33:45;;;;;;;444.52;56.65;;;5.00;99.90;;;3.57;100.00;101218.09;5001329;28;20033;-79
2022/12/25 01:36:24;;;;;;;384.27;54.95;;;5.10;99.90;;;3.57;100.00;101217.25;5006138;28;20487;-79
2022/12/25 01:38:59;;;;;;;408.65;54.97;;;5.10;99.90;;;3.58;100.00;101217.22;5021604;28;20142;-79
2022/12/25 01:41:25;;;;;;;517.38;57.20;;;5.10;99.90;;;3.49;100.00;101223.38;5002589;28;20038;-78
2022/12/25 01:43:59;;;;;;;441.88;55.70;;;5.10;99.90;;;3.47;100.00;101225.13;5020964;28;20037;-79
2022/12/25 01:46:24;;;;;;;419.02;55.50;;;5.10;99.90;;;3.53;100.00;101220.75;5001800;28;20026;-79
2022/12/25 01:48:52;;;;;;;320.02;50.95;;;5.10;99.90;;;3.58;100.00;101224.16;4988434;28;20112;-79
2022/12/25 01:51:40;;;;;;;421.75;55.72;;;5.10;99.90;;;3.65;100.00;101225.81;4999209;28;20119;-79
2022/12/25 01:54:16;;;;;;;342.42;51.60;;;5.10;99.90;;;3.67;100.00;101237.09;5004102;28;20105;-79
2022/12/25 01:56:47;;;;;;;348.63;51.72;;;5.20;99.90;;;3.66;100.00;101232.78;5004013;28;20041;-79
2022/12/25 01:59:18;;;;;;;361.45;53.33;;;5.20;99.90;;;3.69;100.00;101243.16;5001426;28;20379;-79
2022/12/25 02:01:44;;;;;;;359.27;52.40;;;5.20;99.90;;;3.70;100.00;101239.69;4987505;28;20038;-79
2022/12/25 02:04:39;;;;;;;378.67;54.00;;;5.20;99.90;;;3.73;100.00;101233.56;5004422;28;20094;-79
2022/12/25 02:07:13;;;;;;;377.17;52.42;;;5.20;99.90;;;3.76;100.00;101233.53;5000291;28;20035;-79
2022/12/25 02:09:39;;;;;;;488.08;56.38;;;5.20;99.90;;;3.76;100.00;101230.94;4986081;28;20030;-79
2022/12/25 02:12:06;;;;;;;513.65;53.70;;;5.20;99.90;;;3.71;100.00;101230.97;4997091;28;20092;-79
2022/12/25 02:14:35;;;;;;;637.60;60.40;;;5.20;99.90;;;3.66;100.00;101233.63;5001325;28;20038;-79
2022/12/25 02:17:35;;;;;;;567.40;58.88;;;5.20;99.90;;;3.68;100.00;101236.22;4985367;28;20027;-79
2022/12/25 02:20:42;;;;;;;1079.97;73.63;;;5.20;99.90;;;3.59;100.00;101237.19;4997802;28;20108;-79
2022/12/25 02:23:39;;;;;;;711.08;63.13;;;5.10;99.90;;;3.53;100.00;101229.44;5000429;28;20120;-79
2022/12/25 02:26:10;;;;;;;1274.85;77.18;;;5.10;99.90;;;3.42;100.00;101226.94;5010542;28;20038;-79
2022/12/25 02:28:47;;;;;;;621.85;59.63;;;5.00;99.90;;;3.36;100.00;101220.91;5003133;28;20504;-78
2022/12/25 02:31:36;;;;;;;556.10;55.20;;;4.90;99.90;;;3.38;100.00;101229.56;4987267;28;20022;-79
2022/12/25 02:34:45;;;;;;;852.65;63.95;;;4.90;99.90;;;3.36;100.00;101228.72;5002177;28;20037;-79
2022/12/25 02:37:33;;;;;;;1005.88;62.80;;;4.90;99.90;;;3.35;100.00;101225.25;4957762;28;20053;-79
2022/12/25 02:40:25;;;;;;;592.20;51.95;;;4.90;99.90;;;3.35;100.00;101224.38;5001625;28;20034;-79
2022/12/25 03:07:13;;;;;;;;;;;4.90;99.90;;;3.19;100.00;101234.06;4971011;28;20029;-79
2022/12/25 03:12:50;;;;;;;946.55;61.50;;;4.80;99.90;;;3.20;100.00;101246.22;4997858;28;20129;-79
2022/12/25 03:18:09;;;;;;;1151.13;64.00;;;4.80;99.90;;;3.21;100.00;101233.16;5003422;28;20451;-78
2022/12/25 03:28:57;;;;;;;768.80;52.92;;;4.70;99.90;;;3.11;100.00;101247.16;5005014;28;20118;-79
2022/12/25 03:31:54;;;;;;;1181.05;65.18;;;4.70;99.90;;;3.08;100.00;101248.00;5001076;28;20146;-79
2022/12/25 04:37:05;;;;;;;551.30;34.03;;;3.50;99.90;;;1.92;100.00;101311.78;5022412;28;20045;-80
2022/12/25 04:39:30;;;;;;;582.65;36.22;;;3.50;99.90;;;1.95;100.00;101314.38;5036870;28;20424;-80
2022/12/25 04:41:57;;;;;;;473.60;34.33;;;3.50;99.90;;;2.01;100.00;101313.53;5037801;28;20020;-79
2022/12/25 04:44:26;;;;;;;506.25;36.05;;;3.60;99.90;;;2.06;100.00;101316.97;5005104;28;20052;-80
2022/12/25 04:46:56;;;;;;;502.38;34.35;;;3.60;99.90;;;2.09;100.00;101316.94;5037082;28;20044;-80
2022/12/25 04:49:22;;;;;;;429.98;31.80;;;3.70;99.90;;;2.12;100.00;101316.97;5038894;28;20029;-80
2022/12/25 04:51:48;;;;;;;304.58;28.05;;;3.70;99.90;;;2.13;100.00;101310.88;5026053;28;20455;-80
2022/12/25 04:54:14;;;;;;;331.40;29.75;;;3.70;99.90;;;2.24;100.00;101313.44;5029382;28;20028;-81
2022/12/25 04:56:40;;;;;;;363.33;31.23;;;3.80;99.90;;;2.30;100.00;101320.38;5020842;28;20111;-80
2022/12/25 04:59:06;;;;;;;349.92;31.83;;;3.90;99.90;;;2.38;100.00;101322.06;5022694;28;20112;-80
2022/12/25 05:01:37;;;;;;;294.27;30.30;;;4.00;99.90;;;2.47;100.00;101331.59;5003795;28;20037;-80
2022/12/25 05:04:03;;;;;;;287.92;30.25;;;4.10;99.90;;;2.53;100.00;101341.06;5020352;28;20049;-80
2022/12/25 05:06:29;;;;;;;320.77;32.33;;;4.10;99.90;;;2.58;100.00;101340.19;5020523;28;20033;-79
2022/12/25 05:08:54;;;;;;;329.42;31.80;;;4.20;99.90;;;2.63;100.00;101343.63;5024618;28;20112;-79
2022/12/25 05:11:20;;;;;;;427.08;35.63;;;4.20;99.90;;;2.74;100.00;101347.94;5007485;28;20496;-81
2022/12/25 05:13:46;;;;;;;555.92;41.03;;;4.30;99.90;;;2.86;100.00;101355.69;5031620;28;20071;-79
2022/12/25 05:16:20;;;;;;;588.22;38.45;;;4.40;99.90;;;2.92;100.00;101355.66;5024754;28;20036;-80
2022/12/25 05:18:50;;;;;;;530.75;36.10;;;4.50;99.90;;;2.95;100.00;101342.63;5040833;28;20037;-80
2022/12/25 05:21:22;;;;;;;632.20;37.83;;;4.50;99.90;;;3.00;100.00;101342.59;5041598;28;20025;-80
2022/12/25 05:23:52;;;;;;;613.78;37.97;;;4.60;99.90;;;3.02;100.00;101349.56;5037558;28;20045;-79
2022/12/25 05:26:25;;;;;;;636.83;38.95;;;4.60;99.90;;;3.10;100.00;101340.81;5041427;28;20061;-79
2022/12/25 05:28:52;;;;;;;723.33;41.17;;;4.70;99.90;;;3.11;100.00;101338.22;5023515;28;20033;-80
2022/12/25 05:31:19;;;;;;;765.50;40.67;;;4.70;99.90;;;3.11;100.00;101334.72;5008900;28;20017;-80
2022/12/25 05:33:56;;;;;;;705.35;39.30;;;4.70;99.90;;;3.13;100.00;101333.00;5040505;28;20120;-80
2022/12/25 05:36:22;;;;;;;747.53;39.50;;;4.70;99.90;;;3.14;100.00;101313.91;5040382;28;20044;-80
2022/12/25 05:38:49;;;;;;;760.10;39.42;;;4.70;99.90;;;3.16;100.00;101318.22;5023905;28;20039;-79
2022/12/25 05:41:17;;;;;;;555.33;33.45;;;4.70;99.90;;;3.23;100.00;101308.63;5044243;28;20383;-80
2022/12/25 05:43:46;;;;;;;726.33;37.90;;;4.70;99.90;;;3.26;100.00;101311.22;5008049;28;20033;-80
2022/12/25 05:46:12;;;;;;;674.28;35.92;;;4.70;99.90;;;3.24;100.00;101315.56;5039628;28;20599;-79
2022/12/25 05:48:38;;;;;;;741.17;37.63;;;4.70;99.90;;;3.24;100.00;101312.97;5009313;28;20036;-81
2022/12/25 05:51:14;;;;;;;704.38;38.58;;;4.80;99.90;;;3.21;100.00;101310.38;5022465;28;20116;-80
2022/12/25 05:53:41;;;;;;;630.93;36.17;;;4.70;99.90;;;3.16;100.00;101309.56;5013537;28;20021;-81
2022/12/25 05:56:08;;;;;;;637.45;37.95;;;4.70;99.90;;;3.12;100.00;101313.91;5048345;28;20286;-80
2022/12/25 05:58:42;;;;;;;643.55;37.17;;;4.70;99.90;;;3.15;100.00;101300.88;5043270;28;20030;-80
2022/12/25 06:01:20;;;;;;;610.25;37.22;;;4.70;99.90;;;3.13;100.00;101309.56;5022987;28;20044;-80
2022/12/25 06:03:46;;;;;;;767.90;38.35;;;4.60;99.90;;;3.13;100.00;101289.59;5024580;28;20374;-79
2022/12/25 06:06:12;;;;;;;811.80;37.80;;;4.60;99.90;;;3.11;100.00;101300.91;5024053;28;20059;-81
2022/12/25 06:08:38;;;;;;;705.40;37.45;;;4.60;99.90;;;3.06;100.00;101294.00;5025526;28;20030;-80
2022/12/25 06:11:06;;;;;;;764.60;36.28;;;4.60;99.90;;;3.06;100.00;101293.13;5039663;28;20151;-80
2022/12/25 06:13:37;;;;;;;790.78;37.72;;;4.60;99.90;;;3.00;100.00;101288.84;5021219;28;20029;-81
2022/12/25 06:16:09;;;;;;;693.33;35.97;;;4.60;99.90;;;2.94;100.00;101282.78;5021802;28;20150;-80
2022/12/25 06:18:43;;;;;;;708.85;46.42;;;4.50;99.90;;;2.89;100.00;101282.81;5022904;28;20535;-81
2022/12/25 06:21:12;;;;;;;687.53;38.10;;;4.50;99.90;;;2.84;100.00;101276.81;5020745;28;20032;-79
2022/12/25 06:23:38;;;;;;;515.33;35.65;;;4.50;99.90;;;2.78;100.00;101279.44;5040495;28;20471;-80
2022/12/25 06:26:17;;;;;;;528.97;32.58;;;4.40;99.90;;;2.66;100.00;101270.84;5039447;28;20032;-80
2022/12/25 06:28:46;;;;;;;457.83;30.67;;;4.30;99.90;;;2.62;100.00;101274.31;5040491;28;20047;-81
2022/12/25 06:31:21;;;;;;;476.20;34.47;;;4.30;99.90;;;2.58;100.00;101280.41;5006457;28;20032;-80
2022/12/25 06:33:56;;;;;;;499.73;33.53;;;4.30;99.90;;;2.59;100.00;101276.94;5024803;28;20041;-80
2022/12/25 06:36:25;;;;;;;479.83;29.38;;;4.30;99.90;;;2.48;100.00;101278.69;5025996;28;20040;-81
2022/12/25 06:38:55;;;;;;;534.35;31.13;;;4.20;99.90;;;2.47;100.00;101282.19;5022428;28;20033;-80
2022/12/25 06:41:27;;;;;;;459.50;26.17;;;4.20;99.90;;;2.45;100.00;101281.34;5038044;28;20056;-81
2022/12/25 06:44:00;;;;;;;453.08;27.67;;;4.10;99.90;;;2.49;100.00;101292.59;5039716;28;20402;-80
2022/12/25 06:46:31;;;;;;;472.58;27.17;;;4.10;99.90;;;2.43;100.00;101291.72;5020508;28;20021;-80
2022/12/25 06:49:06;;;;;;;529.10;28.90;;;4.10;99.90;;;2.42;100.00;101290.00;5024583;28;20037;-79
2022/12/25 06:51:33;;;;;;;487.23;25.80;;;4.10;99.90;;;2.39;100.00;101287.41;5022235;28;20017;-80
2022/12/25 06:54:02;;;;;;;586.67;32.85;;;4.10;99.90;;;2.39;100.00;101305.59;5040058;28;20028;-79
2022/12/25 06:56:29;;;;;;;494.55;27.65;;;4.10;99.90;;;2.40;100.00;101307.34;5039354;28;20132;-80
2022/12/25 06:59:04;;;;;;;440.00;26.65;;;4.10;99.90;;;2.41;100.00;101319.47;5041533;28;20071;-80
2022/12/25 07:01:46;;;;;;;471.58;26.08;;;4.00;99.90;;;2.40;100.00;101320.34;5021112;28;20044;-80
2022/12/25 07:04:34;;;;;;;516.03;28.00;;;4.10;99.90;;;2.37;100.00;101316.88;5036624;28;20029;-81
2022/12/25 07:07:00;;;;;;;461.05;27.50;;;4.00;99.90;;;2.33;100.00;101323.81;5045118;28;20105;-80
2022/12/25 07:09:26;;;;;;;484.88;28.00;;;4.00;99.90;;;2.40;100.00;101322.09;5006465;28;20038;-81
2022/12/25 07:11:53;;;;;;;501.15;28.95;;;4.00;99.90;;;2.38;100.00;101334.22;5004657;28;20035;-79
2022/12/25 07:14:25;;;;;;;501.65;30.65;;;4.10;99.90;;;2.34;100.00;101324.69;5036814;28;20111;-79
2022/12/25 07:16:51;;;;;;;473.75;27.23;;;4.00;99.90;;;2.29;100.00;101329.03;5024665;28;20128;-81
2022/12/25 07:19:18;;;;;;;522.90;29.52;;;4.00;99.90;;;2.23;100.00;101320.38;5039148;28;20586;-80
2022/12/25 07:21:46;;;;;;;454.77;28.50;;;4.00;99.90;;;2.29;100.00;101322.13;5040200;28;20037;-81
2022/12/25 07:24:21;;;;;;;410.38;27.70;;;4.00;99.90;;;2.39;100.00;101316.00;5031598;28;20029;-81
2022/12/25 07:26:48;;;;;;;357.30;27.10;;;4.00;99.90;;;2.31;100.00;101332.47;5022431;28;20699;-80
2022/12/25 07:29:14;;;;;;;333.45;26.75;;;4.00;99.90;;;2.30;100.00;101334.22;5021199;28;20060;-80
2022/12/25 07:31:45;;;;;;;322.67;25.90;;;4.00;99.90;;;2.28;100.00;101333.38;5004015;28;20034;-81
2022/12/25 07:34:11;;;;;;;304.02;25.80;;;4.00;99.90;;;2.33;100.00;101336.81;5006024;28;20115;-79
2022/12/25 07:36:36;;;;;;;437.48;28.15;;;4.10;99.90;;;2.45;100.00;101343.72;5024066;28;20088;-80
2022/12/25 07:39:03;;;;;;;475.15;27.85;;;4.10;99.90;;;2.51;100.00;101345.44;5028968;28;20144;-80
2022/12/25 07:41:28;;;;;;;368.88;24.15;;;4.10;99.90;;;2.50;100.00;101339.34;5019128;28;20053;-78
2022/12/25 07:44:03;;;;;;;366.00;25.75;;;4.10;99.90;;;2.55;100.00;101342.81;5023611;28;20031;-81
2022/12/25 07:46:29;;;;;;;524.83;27.10;;;4.20;99.90;;;2.54;100.00;101346.28;5023680;28;20574;-79
2022/12/25 07:48:55;;;;;;;368.52;24.25;;;4.10;99.90;;;2.59;100.00;101346.25;5039394;28;20029;-80
2022/12/25 07:51:28;;;;;;;342.00;23.27;;;4.20;99.90;;;2.65;100.00;101341.03;5022252;28;20116;-81
2022/12/25 07:53:55;;;;;;;298.13;22.50;;;4.20;99.90;;;2.64;100.00;101340.19;5039555;28;20033;-80
2022/12/25 07:56:21;;;;;;;308.10;23.50;;;4.20;99.90;;;2.64;100.00;101345.38;5022736;28;20377;-80
2022/12/25 07:58:48;;;;;;;357.27;25.27;;;4.30;99.90;;;2.70;100.00;101356.63;5037683;28;20509;-80
2022/12/25 08:01:22;;;;;;;335.05;24.60;;;4.30;99.90;;;2.67;100.00;101355.75;5038317;28;20080;-80
2022/12/25 08:04:07;;;;;;;487.90;30.25;;;4.30;99.90;;;2.72;100.00;101357.47;5044296;28;20457;-80
2022/12/25 08:06:34;;;;;;;347.50;23.52;;;4.30;99.90;;;2.68;100.00;101351.44;5039230;28;20020;-81
2022/12/25 08:09:11;;;;;;;355.08;24.63;;;4.30;99.90;;;2.75;100.00;101342.72;5038824;28;20017;-78
2022/12/25 08:11:38;;;;;;;439.67;26.95;;;4.40;99.90;;;2.77;100.00;101353.13;5038044;28;20041;-80
2022/12/25 08:14:12;;;;;;;435.80;27.77;;;4.40;99.90;;;2.79;100.00;101360.06;5023079;28;20429;-80
2022/12/25 08:16:40;;;;;;;417.20;26.67;;;4.40;99.90;;;2.82;100.00;101362.63;5022163;28;20037;-79
2022/12/25 08:19:32;;;;;;;;;;;;;;;;;;;;;
2022/12/25 08:21:58;;;;;;;454.20;28.42;;;4.50;99.90;;;2.99;100.00;101374.72;5022569;28;20456;-80
2022/12/25 08:24:24;;;;;;;484.65;27.20;;;4.50;99.90;;;3.03;100.00;101372.06;5007333;28;20025;-81
2022/12/25 08:26:50;;;;;;;645.70;29.85;;;4.60;99.90;;;3.14;100.00;101379.81;5038058;28;20030;-79
2022/12/25 08:29:27;;;;;;;387.45;22.55;;;4.60;99.90;;;3.19;100.00;101380.66;5021848;28;20485;-81
2022/12/25 08:31:54;;;;;;;402.85;24.27;;;4.70;99.90;;;3.24;100.00;101391.03;5028740;28;20406;-80
2022/12/25 08:34:24;;;;;;;421.95;23.02;;;4.70;99.90;;;3.28;100.00;101393.63;5019592;28;20055;-81
2022/12/25 08:36:50;;;;;;;452.80;26.02;;;4.80;99.90;;;3.34;100.00;101390.13;5022261;28;20095;-79
2022/12/25 08:39:16;;;;;;;453.30;25.27;;;4.90;99.90;;;3.39;100.00;101392.69;5021814;28;20029;-80
2022/12/25 08:41:42;;;;;;;412.33;26.40;;;4.90;99.90;;;3.42;100.00;101390.09;5021285;28;20029;-79
2022/12/25 08:44:16;;;;;;;478.88;27.88;;;4.90;99.90;;;3.43;100.00;101400.47;5026352;28;20041;-80
2022/12/25 08:46:42;;;;;;;393.50;27.45;;;5.00;99.90;;;3.52;100.00;101396.97;5027571;28;20112;-81
2022/12/25 08:49:07;;;;;;;402.83;26.80;;;5.00;99.90;;;3.57;100.00;101400.38;5042581;28;20163;-81
2022/12/25 08:51:36;;;;;;;414.35;27.08;;;5.10;99.90;;;3.58;100.00;101396.03;5042335;28;20112;-80
2022/12/25 08:54:02;;;;;;;464.70;28.30;;;5.10;99.90;;;3.64;100.00;101407.28;5040497;28;20112;-80
2022/12/25 08:56:35;;;;;;;442.10;28.13;;;5.20;99.90;;;3.68;100.00;101403.78;5043436;28;20028;-81
2022/12/25 08:59:01;;;;;;;428.80;27.63;;;5.20;99.90;;;3.75;100.00;101402.00;5007955;28;20643;-79
2022/12/25 09:01:27;;;;;;;515.65;32.53;;;5.30;99.90;;;3.72;100.00;101404.63;5041598;28;20037;-79
2022/12/25 09:03:53;;;;;;;435.92;28.38;;;5.30;99.90;;;3.69;100.00;101389.00;5024128;28;20497;-81
2022/12/25 09:06:24;;;;;;;419.83;28.55;;;5.30;99.90;;;3.70;100.00;101388.16;5042414;28;20451;-80
2022/12/25 09:08:55;;;;;;;431.65;27.50;;;5.30;99.90;;;3.80;100.00;101389.81;5025114;28;20029;-79
2022/12/25 09:11:44;;;;;;;505.60;29.77;;;5.40;99.90;;;3.80;100.00;101387.22;5039781;28;20032;-81
2022/12/25 09:14:12;;;;;;;439.00;31.15;;;5.40;99.90;;;3.80;100.00;101388.91;5031365;28;20053;-80
2022/12/25 09:16:38;;;;;;;396.38;30.42;;;5.40;99.90;;;3.85;100.00;101385.41;5037630;28;20076;-79
2022/12/25 09:19:04;;;;;;;455.77;30.38;;;5.40;99.90;;;3.87;100.00;101388.88;5044039;28;20508;-80
2022/12/25 09:21:41;;;;;;;428.40;29.55;;;5.40;99.90;;;3.77;100.00;101379.41;5023205;28;20068;-80
2022/12/25 09:24:16;;;;;;;444.73;31.77;;;5.40;99.90;;;3.78;100.00;101375.94;5026085;28;20029;-80
2022/12/25 09:26:41;;;;;;;438.38;31.30;;;5.40;99.90;;;3.83;100.00;101370.69;5041336;28;20041;-81
2022/12/25 09:29:10;;;;;;;425.85;31.38;;;5.40;99.90;;;3.78;100.00;101368.13;5041970;28;20560;-79
2022/12/25 09:31:36;;;;;;;394.67;32.30;;;5.40;99.90;;;3.83;100.00;101368.94;5040412;28;20021;-79
2022/12/25 09:34:14;;;;;;;378.02;29.77;;;5.40;99.90;;;3.89;100.00;101366.28;5040179;28;20059;-81
2022/12/25 09:36:42;;;;;;;409.25;29.98;;;5.50;99.90;;;3.92;100.00;101367.13;5040380;28;20073;-80
2022/12/25 09:39:14;;;;;;;449.83;32.15;;;5.50;99.90;;;4.00;100.00;101373.16;5028781;28;20579;-80
2022/12/25 09:41:52;;;;;;;461.30;31.85;;;5.50;99.90;;;4.01;100.00;101385.28;5039245;28;20029;-80
2022/12/25 09:44:35;;;;;;;498.52;31.65;;;5.60;99.90;;;4.00;100.00;101387.03;5040786;28;20045;-80
2022/12/25 09:47:19;;;;;;;548.33;32.60;;;5.60;99.90;;;3.99;100.00;101390.50;5025805;28;20044;-80
2022/12/25 09:50:10;;;;;;;556.40;31.60;;;5.60;99.90;;;3.98;100.00;101394.00;5041368;28;20041;-80
2022/12/25 09:53:11;;;;;;;565.92;31.08;;;5.60;99.90;;;3.90;100.00;101382.78;5021029;28;20045;-80
2022/12/25 09:56:09;;;;;;;471.88;30.08;;;5.60;99.90;;;4.05;100.00;101387.84;5040753;28;20031;-79
2022/12/25 09:58:40;;;;;;;437.95;31.40;;;5.60;99.90;;;4.09;100.00;101384.34;5040903;28;20072;-79
2022/12/25 10:01:12;;;;;;;432.15;30.77;;;5.60;99.90;;;4.06;100.00;101392.19;5039677;28;20029;-80
2022/12/25 10:04:08;;;;;;;482.58;30.65;;;5.70;99.90;;;4.04;100.00;101385.25;5038881;28;20051;-80
2022/12/25 10:07:18;;;;;;;423.33;29.67;;;5.60;99.90;;;4.04;100.00;101385.25;5039138;28;20163;-81
2022/12/25 10:10:18;;;;;;;476.40;32.40;;;5.70;99.90;;;4.08;100.00;101381.72;5058535;23;20041;-80
2022/12/25 10:13:21;;;;;;;514.17;29.95;;;5.70;99.90;;;4.09;100.00;101379.13;5045919;28;20029;-81
2022/12/25 10:16:24;;;;;;;522.75;30.58;;;5.70;99.90;;;4.04;100.00;101380.91;5047588;28;20033;-80
2022/12/25 10:19:29;;;;;;;436.83;31.40;;;5.70;99.90;;;4.08;100.00;101376.50;5064644;28;20041;-80
2022/12/25 10:22:10;;;;;;;440.08;28.63;;;5.70;99.90;;;4.11;100.00;101379.13;5041466;28;20060;-79
2022/12/25 10:24:56;;;;;;;382.40;29.77;;;5.70;99.90;;;4.17;100.00;101380.78;5029313;28;20060;-80
2022/12/25 10:27:37;;;;;;;419.85;32.30;;;5.70;99.90;;;4.19;100.00;101384.25;5034526;28;20040;-81
2022/12/25 10:30:28;;;;;;;400.45;32.30;;;5.80;99.90;;;4.17;100.00;101376.47;5033696;23;20203;-80
2022/12/25 10:32:58;;;;;;;442.60;31.40;;;5.80;99.90;;;4.14;100.00;101366.03;5042040;28;20034;-80
2022/12/25 10:35:29;;;;;;;419.58;31.63;;;5.80;99.90;;;4.13;100.00;101364.31;5020992;28;20030;-79
2022/12/25 10:38:13;;;;;;;446.73;31.23;;;5.80;99.90;;;4.07;100.00;101351.34;5035863;28;20040;-81
2022/12/25 10:41:23;;;;;;;356.08;27.85;;;5.70;99.90;;;4.02;100.00;101342.72;5032695;28;20129;-80
2022/12/25 10:44:01;;;;;;;327.40;25.35;;;5.70;99.90;;;3.99;100.00;101343.59;5005764;28;20034;-80
2022/12/25 10:46:31;;;;;;;329.40;28.00;;;5.70;99.90;;;3.97;100.00;101347.09;4990201;28;20061;-79
2022/12/25 10:49:13;;;;;;;422.92;31.55;;;5.70;99.90;;;4.02;100.00;101351.41;4989517;28;20063;-79
2022/12/25 10:51:47;;;;;;;412.90;32.95;;;5.70;99.90;;;4.09;100.00;101347.84;4991081;28;20406;-80
2022/12/25 10:54:34;;;;;;;409.75;32.28;;;5.70;99.90;;;4.06;100.00;101347.00;5004075;28;20131;-81
2022/12/25 10:57:21;;;;;;;360.08;30.58;;;5.70;99.90;;;4.02;100.00;101345.34;5006793;28;20064;-80
2022/12/25 11:00:01;;;;;;;444.92;35.72;;;5.70;99.90;;;4.04;100.00;101360.06;5005083;28;20041;-80
2022/12/25 11:02:43;;;;;;;363.17;31.80;;;5.70;99.90;;;4.07;100.00;101356.56;5004522;28;20071;-80
2022/12/25 11:05:26;;;;;;;347.65;33.55;;;5.70;99.90;;;4.14;100.00;101346.94;5005529;28;20042;-80
2022/12/25 11:07:53;;;;;;;338.85;33.83;;;5.70;99.90;;;4.15;100.00;101354.75;5021499;28;20030;-81
2022/12/25 11:10:45;;;;;;;344.73;33.67;;;5.80;99.90;;;4.18;100.00;101359.06;5014387;23;20058;-81
2022/12/25 11:13:29;;;;;;;378.27;34.95;;;5.80;99.90;;;4.25;100.00;101347.69;5008477;28;20034;-80
2022/12/25 11:16:41;;;;;;;390.17;33.92;;;5.80;99.90;;;4.25;100.00;101350.28;5011901;28;20485;-81
2022/12/25 11:19:34;;;;;;;344.95;34.03;;;5.80;99.90;;;4.17;100.00;101339.97;4997447;28;20048;-80
2022/12/25 11:22:03;;;;;;;329.75;33.03;;;5.90;99.90;;;4.24;100.00;101341.63;4991052;28;20046;-80
2022/12/25 11:24:37;;;;;;;367.13;35.35;;;5.90;99.90;;;4.30;100.00;101335.47;4991035;28;20491;-81
2022/12/25 11:27:06;;;;;;;411.42;36.17;;;5.90;99.90;;;4.41;100.00;101346.66;4971085;28;20048;-80
2022/12/25 11:32:25;;;;;;;388.10;36.20;;;6.00;99.90;;;4.44;100.00;101344.00;5045268;23;20049;-81
2022/12/25 11:34:58;;;;;;;347.40;35.08;;;6.10;99.90;;;4.54;100.00;101344.78;5040715;28;20045;-80
2022/12/25 11:37:53;;;;;;;369.58;35.25;;;6.10;99.90;;;4.62;100.00;101336.84;5038551;28;20064;-81
2022/12/25 11:40:54;;;;;;;384.60;38.33;;;6.10;99.90;;;4.68;100.00;101331.53;5021154;28;20072;-80
2022/12/25 11:43:44;;;;;;;390.58;38.90;;;6.20;99.90;;;4.71;100.00;101329.78;5037655;28;20063;-81
2022/12/25 11:46:41;;;;;;;342.75;37.50;;;6.20;99.90;;;4.69;100.00;101328.06;5029292;28;20040;-81
2022/12/25 11:49:24;;;;;;;316.95;37.15;;;6.20;99.90;;;4.64;100.00;101333.31;5059862;28;20029;-81
2022/12/25 11:52:01;;;;;;;381.80;40.58;;;6.20;99.90;;;4.66;100.00;101323.72;5014816;23;20046;-80
2022/12/25 11:54:37;;;;;;;406.65;42.13;;;6.20;99.90;;;4.67;100.00;101320.25;5002900;28;20029;-80
2022/12/25 11:57:14;;;;;;;321.98;39.90;;;6.20;99.90;;;4.65;100.00;101308.97;4984853;28;20433;-80
2022/12/25 12:00:20;;;;;;;374.95;40.70;;;6.20;99.90;;;4.60;100.00;101308.19;4991421;28;20045;-80
2022/12/25 12:02:59;;;;;;;287.88;38.10;;;6.20;99.90;;;4.66;100.00;101288.97;4954583;28;20042;-80
2022/12/25 12:05:52;;;;;;;191.77;34.90;;;6.20;99.90;;;4.59;100.00;101285.56;4949789;28;20503;-81
2022/12/25 12:08:23;;;;;;;162.43;35.42;;;6.30;99.90;;;4.66;100.00;101283.75;4948785;28;20420;-79
2022/12/25 12:11:37;;;;;;;223.52;38.03;;;6.30;99.90;;;4.69;100.00;101286.34;4971636;28;20057;-81
2022/12/25 12:14:57;;;;;;;298.17;41.67;;;6.30;99.90;;;4.76;100.00;101271.47;4968843;28;20029;-80